首页
METAR-TAF:

METAR-TAF

机场 :

卡利斯佩尔, 蒙大拿州, 美国

纬度: 48-18-15N, 经度: 114-15-49W, 海拔: 906米

当前天气观测

该预报发布于15分钟前的05:55 UTC
风速3节,风向西转西北
温度 8°C
湿度 93%
气压 1019 hPa
能見度: 16.1公里
少量云层高于7000英尺
阴天层高于10000英尺

METAR: KGPI 250555Z 29003KT 10SM FEW070 OVC100 08/07 A3010 RMK AO2 SLP198 T00780072 10150 20078 51005

时间: 00:10 (06:10 UTC)

预报

该预报发布于50分钟前的05:20 UTC
预报有效从25日的 06点(UTC)到 26日的 06点(UTC)
风速3节,风向多变
能見度: 10公里
多云层高于10000英尺
从 25日的 1200点(UTC)
风速2节,风向东南
能見度: 9.7公里
散云层高于10000英尺
轻雾
从 25日的 1400点(UTC)
风速5节,风向东南
能見度: 10公里
多云层高于10000英尺
从 25日的 2000点(UTC)
风速8节,风向
能見度: 10公里
多云层高于5000英尺
阴天层高于8000英尺
小阵雨
从 26日的 0300点(UTC)
风速9节,风向
能見度: 9.7公里
多云层高于2500英尺
阴天层高于5000英尺
小雨

TAF: KGPI 250520Z 2506/2606 VRB03KT P6SM BKN100 FM251200 14002KT 6SM BR SCT100 FM251400 14005KT P6SM BKN100 FM252000 17008KT P6SM -SHRA BKN050 OVC080 FM260300 19009KT 6SM -RA BKN025 OVC050

超过4000个机场的气象观测和天气预报(METAR&TAF报告)。

可查询的气象台以黄色和红色小点在地图上表示。

将鼠标移到小点上方,可查看气象台名称。

然后点击查看天气观测和预报。

如需切换地图:点击带黑十字的绿色按钮放大地图;点击带横线的绿色按钮缩小地图;或者点击绿色箭头查看邻近地区的地图。


METAR-TAF: